Time;durP1;ratioP1;P1;durP2;ratioP2;P2;SDS_P1;SDS_P2;PMS_P1;PMS_P2;Temp;Humidity;BMP_temperature;BMP_pressure;BME280_temperature;BME280_humidity;BME280_pressure;Samples;Min_cycle;Max_cycle;Signal;HPM_P1;HPM_P2
2022/09/05 00:00:10;;;;;;;20.23;4.25;;;;;;;24.68;53.06;100544.00;5030426;28;20037;-83
2022/09/05 00:02:59;;;;;;;18.02;4.32;;;;;;;24.65;52.31;100539.25;5032353;28;20108;-84
2022/09/05 00:05:49;;;;;;;14.30;4.32;;;;;;;24.59;52.46;100532.53;5032337;28;20151;-78
2022/09/05 00:08:26;;;;;;;25.83;4.88;;;;;;;24.82;51.89;100538.28;5032283;28;20037;-78
2022/09/05 00:11:26;;;;;;;16.92;4.13;;;;;;;24.76;52.37;100537.13;5032421;28;20434;-78
2022/09/05 00:14:41;;;;;;;16.88;4.05;;;;;;;24.67;53.45;100536.03;5031038;28;20033;-78
2022/09/05 00:17:09;;;;;;;22.73;6.10;;;;;;;24.78;53.56;100531.91;4990618;28;20485;-78
2022/09/05 00:19:50;;;;;;;17.50;5.97;;;;;;;24.95;53.30;100529.38;4990765;28;20030;-78
2022/09/05 00:22:24;;;;;;;20.02;5.78;;;;;;;24.47;54.98;100521.84;5017798;28;20068;-78
2022/09/05 00:25:25;;;;;;;24.27;5.78;;;;;;;24.66;54.90;100510.09;5031766;28;20073;-78
2022/09/05 00:28:00;;;;;;;32.25;7.78;;;;;;;24.70;54.64;100510.84;5019001;28;20044;-78
2022/09/05 00:30:32;;;;;;;30.95;6.65;;;;;;;24.98;54.36;100522.94;5030860;28;20091;-78
2022/09/05 00:33:00;;;;;;;25.02;6.05;;;;;;;24.92;54.71;100512.19;5031918;28;20495;-78
2022/09/05 00:35:38;;;;;;;29.92;7.30;;;;;;;24.94;55.07;100508.19;5032235;28;20100;-78
2022/09/05 00:38:18;;;;;;;26.98;6.50;;;;;;;24.93;54.84;100490.63;5030815;28;20030;-78
2022/09/05 00:40:49;;;;;;;23.60;6.68;;;;;;;24.60;56.21;100472.66;5032051;28;20029;-78
2022/09/05 00:43:27;;;;;;;29.42;6.60;;;;;;;24.69;56.33;100502.88;5032009;28;20026;-78
2022/09/05 00:46:03;;;;;;;30.90;6.35;;;;;;;24.88;55.26;100496.69;5030561;28;20095;-78
2022/09/05 00:48:40;;;;;;;34.55;6.30;;;;;;;25.19;54.14;100511.53;5030546;28;20419;-84
2022/09/05 00:51:41;;;;;;;18.85;5.88;;;;;;;24.63;55.84;100489.34;5032155;28;20084;-77
2022/09/05 00:54:22;;;;;;;22.40;4.88;;;;;;;24.70;55.64;100502.47;5032030;28;20523;-78
2022/09/05 00:57:02;;;;;;;29.92;6.00;;;;;;;24.49;56.30;100506.28;5030748;28;20033;-78
2022/09/05 00:59:47;;;;;;;21.75;5.45;;;;;;;24.82;55.45;100507.53;5031832;28;20030;-78
2022/09/05 01:02:32;;;;;;;21.80;5.97;;;;;;;25.03;54.69;100514.91;5031995;28;20104;-78
2022/09/05 01:05:06;;;;;;;17.10;4.18;;;;;;;25.34;53.57;100512.16;5031944;28;20029;-78
2022/09/05 01:08:07;;;;;;;14.63;4.35;;;;;;;24.94;54.97;100505.41;5031928;28;20034;-78
2022/09/05 01:10:43;;;;;;;17.08;4.72;;;;;;;25.05;54.26;100506.13;5015637;28;20045;-78
2022/09/05 01:13:14;;;;;;;20.80;4.10;;;;;;;25.23;53.55;100494.69;5035495;28;20033;-78
2022/09/05 01:16:11;;;;;;;22.38;4.70;;;;;;;25.29;53.37;100499.41;5035334;28;20504;-78
2022/09/05 01:19:10;;;;;;;12.40;3.75;;;;;;;24.89;55.08;100496.28;5035096;28;20369;-78
2022/09/05 01:21:51;;;;;;;23.27;4.87;;;;;;;25.21;54.00;100497.91;5035321;28;20029;-78
2022/09/05 01:24:53;;;;;;;11.32;4.32;;;;;;;25.01;54.30;100505.31;5035262;28;20622;-77
2022/09/05 01:27:54;;;;;;;15.98;4.20;;;;;;;25.19;53.30;100505.94;5035126;28;20025;-78
2022/09/05 01:30:40;;;;;;;18.45;4.72;;;;;;;25.21;53.33;100505.53;4993290;28;20138;-77
2022/09/05 01:33:30;;;;;;;20.73;4.47;;;;;;;25.15;53.40;100507.97;5031423;28;20112;-77
2022/09/05 01:36:14;;;;;;;25.40;5.15;;;;;;;25.26;53.06;100496.66;5035027;28;20100;-78
2022/09/05 01:38:58;;;;;;;25.83;6.47;;;;;;;25.33;52.32;100508.56;5033654;28;20021;-77
2022/09/05 01:41:57;;;;;;;20.58;5.38;;;;;;;25.31;52.41;100508.16;5034984;28;20021;-78
2022/09/05 01:44:42;;;;;;;25.40;5.22;;;;;;;25.29;52.32;100513.38;5034615;28;20026;-78
2022/09/05 01:47:34;;;;;;;25.02;5.40;;;;;;;25.33;52.24;100504.97;5034869;28;20381;-80
2022/09/05 01:50:19;;;;;;;28.10;5.90;;;;;;;25.34;52.16;100512.94;5034668;28;20108;-77
2022/09/05 01:53:03;;;;;;;25.92;5.32;;;;;;;25.44;51.78;100514.78;5034751;28;20040;-78
2022/09/05 01:55:53;;;;;;;22.08;4.93;;;;;;;25.26;52.32;100528.22;5034687;28;20025;-78
2022/09/05 01:58:25;;;;;;;20.75;5.47;;;;;;;25.37;52.08;100528.88;5034378;28;20026;-78
2022/09/05 02:01:20;;;;;;;27.10;6.05;;;;;;;25.39;51.70;100531.22;5034692;28;20030;-78
2022/09/05 02:03:57;;;;;;;25.48;5.90;;;;;;;25.40;51.59;100532.84;5034306;28;20025;-86
2022/09/05 02:06:26;;;;;;;19.98;4.88;;;;;;;25.42;51.49;100542.41;5034306;28;20194;-77
2022/09/05 02:09:20;;;;;;;19.30;5.03;;;;;;;25.41;51.39;100549.19;5033050;28;20116;-78
2022/09/05 02:12:06;;;;;;;23.05;5.38;;;;;;;25.33;51.41;100558.91;5033058;28;20032;-78
2022/09/05 02:14:50;;;;;;;19.25;5.38;;;;;;;25.34;51.53;100571.66;5034138;28;20037;-77
2022/09/05 02:17:40;;;;;;;20.20;4.57;;;;;;;25.23;51.66;100584.97;5034291;28;20480;-78
2022/09/05 02:20:22;;;;;;;24.65;5.82;;;;;;;25.32;50.86;100585.28;5034151;28;20036;-78
2022/09/05 02:23:16;;;;;;;22.52;5.13;;;;;;;25.40;50.74;100597.97;5033136;28;20025;-77
2022/09/05 02:26:11;;;;;;;26.33;5.75;;;;;;;25.34;51.09;100607.22;5014329;28;20497;-81
2022/09/05 02:28:56;;;;;;;26.80;4.95;;;;;;;25.36;50.77;100613.19;5033434;28;20029;-77
2022/09/05 02:31:28;;;;;;;26.80;5.65;;;;;;;25.32;50.67;100613.25;5032690;28;20403;-81
2022/09/05 02:33:57;;;;;;;17.00;4.38;;;;;;;25.37;50.58;100621.16;5033651;28;20068;-78
2022/09/05 02:37:13;;;;;;;22.85;4.43;;;;;;;25.23;50.78;100637.28;5033798;28;20421;-78
2022/09/05 02:40:03;;;;;;;27.23;7.10;;;;;;;25.32;50.85;100632.03;5003065;28;20128;-85
2022/09/05 02:42:41;;;;;;;21.70;5.18;;;;;;;25.27;50.47;100624.09;5033579;28;20026;-78
2022/09/05 02:45:46;;;;;;;23.35;5.10;;;;;;;25.21;50.77;100642.53;5033513;28;20045;-84
2022/09/05 02:48:39;;;;;;;22.85;4.88;;;;;;;25.20;50.64;100663.31;5031700;28;20439;-78
2022/09/05 02:51:27;;;;;;;18.80;5.55;;;;;;;25.15;50.52;100667.31;5033585;28;20033;-78
2022/09/05 02:54:01;;;;;;;20.17;5.82;;;;;;;25.12;50.34;100662.56;5033283;28;20464;-78
2022/09/05 02:56:39;;;;;;;24.73;5.88;;;;;;;25.12;50.21;100679.34;5033540;28;20026;-77
2022/09/05 02:59:30;;;;;;;25.48;5.55;;;;;;;25.01;50.69;100689.78;5033425;28;20033;-78
2022/09/05 03:02:01;;;;;;;19.60;4.40;;;;;;;24.95;50.33;100671.91;5033185;28;20369;-78
2022/09/05 03:04:41;;;;;;;17.38;3.83;;;;;;;24.82;50.42;100671.59;5033427;28;20084;-78
2022/09/05 03:07:38;;;;;;;18.25;4.00;;;;;;;24.77;50.46;100675.63;5033333;28;20026;-77
2022/09/05 03:10:39;;;;;;;19.45;4.20;;;;;;;24.73;50.06;100680.47;5033225;28;20029;-77
2022/09/05 03:13:17;;;;;;;17.50;4.28;;;;;;;24.77;49.80;100678.41;5032024;28;20392;-87
2022/09/05 03:16:15;;;;;;;14.68;3.67;;;;;;;24.69;49.92;100685.25;5033151;28;20036;-78
2022/09/05 03:19:06;;;;;;;14.50;3.28;;;;;;;24.50;49.95;100683.03;5033063;28;20113;-84
2022/09/05 03:22:06;;;;;;;15.73;3.75;;;;;;;24.44;49.66;100681.88;5032753;28;20087;-81
2022/09/05 03:24:43;;;;;;;12.38;2.50;;;;;;;24.26;49.66;100679.16;5032950;28;20041;-78
2022/09/05 03:27:24;;;;;;;13.00;2.25;;;;;;;24.26;49.16;100682.75;5032986;28;20488;-78
2022/09/05 03:30:11;;;;;;;9.60;2.33;;;;;;;24.26;48.21;100684.75;5032989;28;20025;-77
2022/09/05 03:33:04;;;;;;;8.40;2.17;;;;;;;24.08;47.77;100684.81;5032845;28;20112;-77
2022/09/05 03:35:48;;;;;;;7.90;2.05;;;;;;;24.10;48.37;100696.38;5032713;28;20104;-78
2022/09/05 03:38:26;;;;;;;8.20;1.85;;;;;;;24.02;47.96;100694.81;5031497;28;20026;-77
2022/09/05 03:41:02;;;;;;;9.98;2.10;;;;;;;24.00;47.71;100703.59;5032674;28;20395;-77
2022/09/05 03:43:44;;;;;;;9.90;2.53;;;;;;;23.97;47.51;100698.06;5032626;28;20037;-78
2022/09/05 03:47:03;;;;;;;7.47;1.65;;;;;;;23.99;47.22;100701.22;5032385;28;20496;-78
2022/09/05 03:49:45;;;;;;;12.02;1.83;;;;;;;23.97;46.91;100709.22;4991226;28;20614;-83
2022/09/05 03:52:38;;;;;;;6.55;1.27;;;;;;;23.98;46.48;100703.22;5282291;22;20087;-78
2022/09/05 03:55:12;;;;;;;11.75;2.28;;;;;;;23.92;46.18;100709.63;5051786;28;20036;-77
2022/09/05 03:58:05;;;;;;;9.60;2.10;;;;;;;23.91;46.10;100710.81;5052505;28;20025;-78
2022/09/05 04:00:35;;;;;;;8.88;2.30;;;;;;;23.89;46.13;100704.88;5052602;28;20116;-78
2022/09/05 04:03:10;;;;;;;6.63;1.85;;;;;;;23.85;45.73;100710.44;5050856;28;20191;-77
2022/09/05 04:05:40;;;;;;;8.43;2.45;;;;;;;23.70;45.79;100708.91;5052495;28;20021;-77
2022/09/05 04:08:12;;;;;;;10.23;1.83;;;;;;;23.67;45.60;100713.28;5052387;28;20032;-78
2022/09/05 04:11:03;;;;;;;12.13;2.53;;;;;;;23.69;45.34;100724.03;5051298;28;20099;-77
2022/09/05 04:13:37;;;;;;;10.88;2.13;;;;;;;23.62;45.93;100730.44;5050901;28;20032;-78
2022/09/05 04:16:09;;;;;;;6.63;2.17;;;;;;;23.64;45.25;100739.19;5052141;28;20037;-77
2022/09/05 04:18:49;;;;;;;11.57;2.10;;;;;;;23.57;45.54;100744.75;5052388;28;20039;-77
2022/09/05 04:21:26;;;;;;;7.00;2.00;;;;;;;23.49;45.35;100743.97;5050929;28;20017;-77
2022/09/05 04:24:05;;;;;;;11.00;2.28;;;;;;;23.41;45.39;100747.16;5052090;28;20033;-77
2022/09/05 04:26:34;;;;;;;14.73;2.97;;;;;;;23.36;45.19;100742.03;5052268;28;20028;-78
2022/09/05 04:29:27;;;;;;;10.82;2.40;;;;;;;23.36;45.26;100742.81;5050787;28;20262;-81
2022/09/05 04:32:00;;;;;;;10.43;2.03;;;;;;;23.36;45.03;100750.38;5031410;28;20033;-77
2022/09/05 04:35:03;;;;;;;14.18;2.55;;;;;;;23.22;45.51;100762.34;5043756;28;20029;-78
2022/09/05 04:37:54;;;;;;;10.57;2.13;;;;;;;23.02;45.50;100764.72;5052024;28;20048;-86
2022/09/05 04:40:42;;;;;;;9.98;2.45;;;;;;;23.03;45.49;100762.72;5051704;28;20021;-84
2022/09/05 04:43:17;;;;;;;11.30;1.75;;;;;;;23.06;45.34;100764.72;5051841;28;20029;-77
2022/09/05 04:45:48;;;;;;;10.52;2.58;;;;;;;23.14;45.68;100777.47;5052542;28;20017;-78
2022/09/05 04:48:20;;;;;;;10.63;2.08;;;;;;;23.09;45.51;100775.06;5056051;28;20422;-78
2022/09/05 04:50:59;;;;;;;5.25;2.17;;;;;;;23.04;45.49;100784.59;5056066;28;20025;-77
2022/09/05 04:54:02;;;;;;;11.18;2.22;;;;;;;23.04;45.73;100792.16;5055626;28;20120;-77
2022/09/05 04:56:36;;;;;;;10.88;2.10;;;;;;;23.10;45.26;100788.59;5054672;28;20033;-84
2022/09/05 04:59:12;;;;;;;11.80;2.78;;;;;;;23.05;45.27;100796.53;5055879;28;20036;-83
2022/09/05 05:01:51;;;;;;;11.88;2.50;;;;;;;23.03;45.55;100802.53;5054367;28;20025;-77
2022/09/05 05:04:21;;;;;;;13.37;2.80;;;;;;;22.91;45.71;100814.06;5055585;28;20021;-77
2022/09/05 05:07:00;;;;;;;10.57;2.55;;;;;;;22.79;45.83;100803.25;5055752;28;20021;-84
2022/09/05 05:09:38;;;;;;;11.15;2.53;;;;;;;22.81;45.88;100806.44;5055712;28;20020;-78
2022/09/05 05:12:29;;;;;;;9.07;1.77;;;;;;;22.90;45.50;100801.34;5055667;28;20047;-85
2022/09/05 05:14:59;;;;;;;11.65;2.70;;;;;;;22.93;45.62;100814.47;5055401;28;20082;-85
2022/09/05 05:17:38;;;;;;;11.65;2.25;;;;;;;22.88;45.45;100812.06;5054276;28;20098;-78
2022/09/05 05:20:18;;;;;;;7.50;2.25;;;;;;;22.80;45.62;100821.56;5055120;28;20036;-77
2022/09/05 05:22:59;;;;;;;13.85;3.03;;;;;;;22.80;45.89;100821.56;5055210;28;20025;-77
2022/09/05 05:25:26;;;;;;;8.00;2.63;;;;;;;22.73;45.78;100813.19;5055405;28;20099;-84
2022/09/05 05:28:12;;;;;;;14.50;2.65;;;;;;;22.64;45.82;100811.56;5055419;28;20025;-77
2022/09/05 05:30:40;;;;;;;11.18;2.15;;;;;;;22.68;45.63;100809.59;5055095;28;20052;-77
2022/09/05 05:33:22;;;;;;;9.40;2.58;;;;;;;22.59;45.99;100813.94;5055155;28;20079;-77
2022/09/05 05:35:49;;;;;;;9.85;2.47;;;;;;;22.48;46.19;100815.91;5053926;28;20029;-86
2022/09/05 05:38:15;;;;;;;9.80;2.55;;;;;;;22.55;46.10;100813.94;5055062;28;20040;-77
2022/09/05 05:40:49;;;;;;;17.65;2.85;;;;;;;22.53;46.13;100821.09;5054995;28;20473;-87
2022/09/05 05:43:43;;;;;;;12.60;2.65;;;;;;;22.41;46.35;100836.94;5054107;28;20029;-87
2022/09/05 05:46:14;;;;;;;10.68;2.00;;;;;;;22.48;46.18;100847.31;5054048;28;20065;-86
2022/09/05 05:48:43;;;;;;;11.23;2.50;;;;;;;22.50;46.12;100850.50;5055125;28;20105;-77
2022/09/05 05:51:26;;;;;;;11.13;2.40;;;;;;;22.41;46.63;100853.66;5054900;28;20525;-77
2022/09/05 05:54:00;;;;;;;14.55;3.13;;;;;;;22.48;46.26;100861.25;5054845;28;20483;-77
2022/09/05 05:56:53;;;;;;;15.52;2.83;;;;;;;22.48;46.32;100861.25;5053527;28;20061;-77
2022/09/05 05:59:56;;;;;;;13.23;3.50;;;;;;;22.47;46.52;100872.78;5054594;28;20519;-83
2022/09/05 06:02:54;;;;;;;14.90;4.15;;;;;;;22.48;46.34;100869.59;5054472;28;20037;-84
2022/09/05 06:05:38;;;;;;;9.13;2.78;;;;;;;22.45;46.58;100867.59;5055041;28;20082;-79
2022/09/05 06:08:18;;;;;;;9.95;2.63;;;;;;;22.41;46.61;100864.00;5053523;28;20446;-77
2022/09/05 06:10:57;;;;;;;10.27;2.45;;;;;;;22.40;46.87;100870.75;5054342;28;20112;-82
2022/09/05 06:13:27;;;;;;;11.27;3.25;;;;;;;22.39;47.01;100866.38;5054742;28;20037;-77
2022/09/05 06:16:11;;;;;;;12.48;2.60;;;;;;;22.28;47.06;100871.06;5054763;28;20364;-77
2022/09/05 06:18:52;;;;;;;8.70;2.33;;;;;;;22.30;47.44;100877.88;5054201;28;20029;-78
2022/09/05 06:21:27;;;;;;;16.92;2.90;;;;;;;22.28;47.41;100879.41;5053199;28;20569;-87
2022/09/05 06:24:36;;;;;;;13.30;3.05;;;;;;;22.41;47.29;100875.91;5053154;28;20029;-78
2022/09/05 06:27:20;;;;;;;14.35;3.15;;;;;;;22.41;47.46;100875.91;5054444;28;20024;-77
2022/09/05 06:30:08;;;;;;;11.68;3.15;;;;;;;22.51;47.21;100879.94;5054002;28;20028;-77
2022/09/05 06:33:11;;;;;;;13.95;3.80;;;;;;;22.51;47.27;100891.06;5054178;28;20025;-85
2022/09/05 06:35:56;;;;;;;14.98;3.85;;;;;;;22.71;47.02;100899.91;5052972;28;20490;-78
2022/09/05 06:38:53;;;;;;;13.07;3.40;;;;;;;22.56;47.52;100893.50;5052867;28;20425;-78
2022/09/05 06:42:00;;;;;;;12.10;2.40;;;;;;;22.63;47.79;100907.44;5049481;28;20549;-77
2022/09/05 06:44:48;;;;;;;10.70;2.78;;;;;;;22.66;47.82;100915.00;5048334;28;20029;-77
2022/09/05 06:47:18;;;;;;;21.45;3.85;;;;;;;22.76;47.78;100912.69;5032530;28;20475;-77
2022/09/05 06:49:47;;;;;;;13.63;2.70;;;;;;;22.85;47.85;100913.09;5041781;28;20108;-78
2022/09/05 06:52:42;;;;;;;9.80;2.70;;;;;;;22.81;47.94;100923.44;5033468;28;20045;-77
2022/09/05 06:55:46;;;;;;;12.00;2.90;;;;;;;22.93;47.68;100931.47;5027910;28;20013;-79
2022/09/05 06:58:49;;;;;;;11.73;2.80;;;;;;;22.96;48.14;100936.25;5030150;28;20106;-78
2022/09/05 07:01:26;;;;;;;11.57;3.05;;;;;;;23.13;47.84;100941.09;5010852;28;20128;-78
2022/09/05 07:04:16;;;;;;;10.30;2.70;;;;;;;23.17;47.68;100935.53;5020343;28;20033;-81
2022/09/05 07:07:12;;;;;;;13.88;3.40;;;;;;;23.31;47.50;100940.34;5037030;28;20658;-81
2022/09/05 07:09:41;;;;;;;14.57;3.40;;;;;;;23.40;47.66;100949.91;5050024;28;20790;-77
2022/09/05 07:12:15;;;;;;;12.15;3.10;;;;;;;23.25;48.18;100945.50;5024918;28;20889;-78
2022/09/05 07:15:04;;;;;;;10.63;2.50;;;;;;;23.52;47.68;100952.34;5037358;28;20033;-81
2022/09/05 07:17:54;;;;;;;14.18;3.75;;;;;;;23.53;47.87;100955.94;5029882;28;20041;-80
2022/09/05 07:20:23;;;;;;;21.77;3.85;;;;;;;23.70;47.31;100952.38;5058716;28;20049;-80
2022/09/05 07:23:16;;;;;;;13.00;3.10;;;;;;;23.71;47.69;100961.53;5033461;28;20043;-78
2022/09/05 07:25:47;;;;;;;12.13;3.60;;;;;;;23.74;47.46;100960.75;5017115;28;20025;-79
2022/09/05 07:28:14;;;;;;;13.38;3.25;;;;;;;23.83;47.10;100969.53;5030589;28;20467;-78
2022/09/05 07:30:47;;;;;;;10.70;2.38;;;;;;;23.86;47.20;100974.31;5028776;28;20022;-79
2022/09/05 07:33:31;;;;;;;12.63;2.45;;;;;;;23.90;47.12;100963.16;5040331;28;20387;-79
2022/09/05 07:36:13;;;;;;;16.60;3.65;;;;;;;24.03;46.52;100973.53;5053165;28;20032;-78
2022/09/05 07:38:39;;;;;;;10.82;3.03;;;;;;;24.14;46.28;100981.09;5052990;28;20383;-78
2022/09/05 07:41:28;;;;;;;11.55;2.75;;;;;;;24.18;46.39;100974.31;5053332;28;20029;-78
2022/09/05 07:44:01;;;;;;;10.38;2.10;;;;;;;24.44;45.75;100984.28;5053119;28;20037;-79
2022/09/05 07:46:31;;;;;;;14.18;2.83;;;;;;;24.47;45.90;100982.66;5053504;28;20025;-79
2022/09/05 07:49:02;;;;;;;15.70;3.72;;;;;;;24.45;45.56;100974.69;5051550;28;20025;-79
2022/09/05 07:51:36;;;;;;;11.00;2.35;;;;;;;24.54;45.87;100974.28;5051769;28;20025;-79
2022/09/05 07:54:17;;;;;;;19.23;3.55;;;;;;;24.59;45.68;100976.66;5050695;28;20036;-79
2022/09/05 07:56:44;;;;;;;10.57;1.83;;;;;;;24.60;45.14;100979.03;5050858;28;20029;-79
2022/09/05 07:59:15;;;;;;;15.27;3.35;;;;;;;24.67;45.14;100978.22;5052098;28;20394;-79
2022/09/05 08:01:46;;;;;;;15.15;3.40;;;;;;;24.75;44.45;100973.41;5051743;28;20478;-79
2022/09/05 08:04:35;;;;;;;14.20;3.17;;;;;;;24.75;44.42;100968.63;5051984;28;20039;-79
2022/09/05 08:07:09;;;;;;;17.60;3.78;;;;;;;24.92;44.17;100978.94;5052121;28;20226;-83
2022/09/05 08:09:49;;;;;;;10.27;2.53;;;;;;;24.92;44.50;100990.13;5051917;28;20600;-79
2022/09/05 08:12:31;;;;;;;10.40;2.03;;;;;;;25.10;43.97;100983.69;5051808;28;20110;-79
2022/09/05 08:15:23;;;;;;;13.73;3.08;;;;;;;25.03;43.94;100989.28;5051644;28;20102;-79
2022/09/05 08:18:14;;;;;;;10.10;3.20;;;;;;;25.27;43.44;100996.78;5051894;28;20029;-79
2022/09/05 08:20:49;;;;;;;14.20;3.22;;;;;;;25.33;43.50;100997.16;5052517;28;20021;-89
2022/09/05 08:23:32;;;;;;;14.05;3.33;;;;;;;25.43;43.44;101005.50;5055384;28;20021;-79
2022/09/05 08:25:58;;;;;;;19.73;5.40;;;;;;;25.55;43.17;100998.63;5055238;28;20356;-79
2022/09/05 08:28:54;;;;;;;13.10;2.72;;;;;;;25.49;43.17;101005.88;5055322;28;20021;-79
2022/09/05 08:31:47;;;;;;;16.35;2.88;;;;;;;25.48;43.21;101012.66;5054166;28;20029;-79
2022/09/05 08:34:22;;;;;;;13.65;2.28;;;;;;;25.75;43.08;101009.31;5055352;28;20104;-80
2022/09/05 08:36:49;;;;;;;8.77;2.45;;;;;;;25.82;43.19;101010.06;5055435;28;20055;-79
2022/09/05 08:39:19;;;;;;;13.77;2.35;;;;;;;26.00;43.05;101010.75;5054063;28;20029;-79
2022/09/05 08:42:03;;;;;;;12.68;2.75;;;;;;;25.46;43.59;101006.66;5037945;28;20052;-79
2022/09/05 08:44:50;;;;;;;14.40;3.78;;;;;;;25.60;44.08;101011.38;5057821;28;20056;-80
2022/09/05 08:47:39;;;;;;;13.65;3.85;;;;;;;25.92;43.57;101016.78;5039009;28;20116;-82
2022/09/05 08:50:21;;;;;;;14.77;3.92;;;;;;;26.20;43.25;101016.56;5046996;28;20025;-80
2022/09/05 08:53:11;;;;;;;15.38;3.47;;;;;;;26.35;43.34;101022.03;4989218;28;1858783;-88
2022/09/05 08:55:52;;;;;;;18.85;3.67;;;;;;;26.44;42.91;101016.78;5072046;28;20045;-79
2022/09/05 08:58:45;;;;;;;10.85;2.75;;;;;;;26.45;42.38;101015.56;5056461;28;20024;-79
2022/09/05 09:01:35;;;;;;;10.48;3.20;;;;;;;26.38;41.84;101013.63;5056222;28;20025;-88
2022/09/05 09:04:00;;;;;;;;;;;;;;;26.39;41.46;101006.81;5056872;28;20079;-90
2022/09/05 09:06:38;;;;;;;10.98;2.90;;;;;;;26.57;41.72;101005.84;5071833;28;20366;-89
2022/09/05 09:09:32;;;;;;;13.13;2.85;;;;;;;26.51;41.62;101005.50;5071470;28;20025;-79
2022/09/05 09:12:36;;;;;;;14.88;3.38;;;;;;;26.51;42.08;100997.88;5052773;28;20029;-82
2022/09/05 09:15:28;;;;;;;17.38;3.95;;;;;;;26.68;42.42;101000.94;5039980;28;20040;-80
2022/09/05 09:17:55;;;;;;;15.20;4.03;;;;;;;26.63;42.98;100981.75;5071448;28;20029;-79
2022/09/05 09:20:26;;;;;;;24.52;4.22;;;;;;;26.67;43.33;100976.91;5055748;28;20021;-80
2022/09/05 09:23:01;;;;;;;20.88;4.43;;;;;;;26.52;43.67;100981.84;5055991;28;20033;-80
2022/09/05 09:25:45;;;;;;;22.83;4.28;;;;;;;26.52;44.20;100970.66;5055730;28;20056;-79
2022/09/05 09:28:29;;;;;;;22.40;4.68;;;;;;;26.63;43.92;100973.34;5055868;28;20025;-80
2022/09/05 09:31:13;;;;;;;17.40;4.72;;;;;;;26.25;45.42;100974.13;5055706;28;20029;-85
2022/09/05 09:33:46;;;;;;;17.52;4.03;;;;;;;26.66;44.59;100978.91;5055165;28;20027;-79
2022/09/05 09:36:52;;;;;;;22.35;4.32;;;;;;;26.75;44.40;100984.00;5055511;28;20478;-88
2022/09/05 09:39:44;;;;;;;14.00;3.05;;;;;;;26.81;44.49;100983.13;5055944;28;20112;-88
2022/09/05 09:42:09;;;;;;;17.05;4.15;;;;;;;26.87;44.57;100975.06;5055750;28;20072;-88
2022/09/05 09:44:56;;;;;;;16.25;4.57;;;;;;;26.90;44.31;100981.84;5055352;28;20114;-78
2022/09/05 09:47:46;;;;;;;21.02;4.80;;;;;;;26.73;44.37;100978.03;5055082;28;20028;-78
2022/09/05 09:50:24;;;;;;;20.98;4.47;;;;;;;26.48;44.91;100981.13;5070715;28;20032;-78
2022/09/05 09:53:15;;;;;;;23.10;4.68;;;;;;;26.87;44.66;100977.06;5054880;28;20052;-88
2022/09/05 09:56:15;;;;;;;30.98;5.53;;;;;;;26.80;44.51;100969.53;5055085;28;20381;-79
2022/09/05 09:59:11;;;;;;;21.30;6.03;;;;;;;27.02;44.70;100964.47;5055138;28;20025;-82
2022/09/05 10:01:54;;;;;;;18.00;4.68;;;;;;;26.69;44.83;100958.47;5053457;28;20047;-78
2022/09/05 10:05:07;;;;;;;20.42;4.82;;;;;;;26.98;44.78;100950.50;5055099;28;20029;-85
2022/09/05 10:07:52;;;;;;;21.45;4.30;;;;;;;27.08;44.57;100943.97;5054458;28;20025;-80
2022/09/05 10:10:39;;;;;;;16.30;4.43;;;;;;;27.12;44.18;100943.13;5053995;28;20033;-80
2022/09/05 10:13:23;;;;;;;28.23;5.82;;;;;;;26.67;45.07;100952.47;5055261;28;20025;-89
2022/09/05 10:16:19;;;;;;;17.90;4.78;;;;;;;26.58;45.00;100952.19;5053356;28;20029;-79
2022/09/05 10:18:56;;;;;;;18.85;3.53;;;;;;;26.98;43.73;100958.09;5070260;28;20356;-79
2022/09/05 10:21:40;;;;;;;19.35;4.72;;;;;;;26.79;44.13;100956.75;5070365;28;20017;-79
2022/09/05 10:24:42;;;;;;;19.33;4.28;;;;;;;26.75;43.72;100955.97;5054654;28;20029;-80
2022/09/05 10:27:28;;;;;;;19.60;3.90;;;;;;;26.65;43.96;100959.72;5054618;28;20029;-79
2022/09/05 10:30:18;;;;;;;16.10;3.80;;;;;;;26.67;43.98;100962.88;5053312;28;20024;-82
2022/09/05 10:33:05;;;;;;;19.02;4.53;;;;;;;26.80;43.60;100953.53;5069850;28;20036;-88
2022/09/05 10:35:39;;;;;;;15.57;4.13;;;;;;;26.40;44.78;100952.38;5070857;28;20040;-80
2022/09/05 10:38:10;;;;;;;32.97;6.78;;;;;;;26.71;44.50;100952.44;5054321;28;20025;-80
2022/09/05 10:40:38;;;;;;;21.35;4.60;;;;;;;26.52;44.63;100954.63;5053268;28;20021;-83
2022/09/05 10:43:15;;;;;;;26.63;5.75;;;;;;;26.73;44.04;100948.00;5052299;28;20484;-90
2022/09/05 10:45:56;;;;;;;28.65;6.15;;;;;;;26.80;43.44;100945.09;5052392;28;20033;-80
2022/09/05 10:48:28;;;;;;;14.77;3.63;;;;;;;26.72;43.73;100963.22;5069630;28;20029;-79
2022/09/05 10:51:05;;;;;;;17.27;4.03;;;;;;;26.83;43.04;100960.31;5069627;28;20063;-79
2022/09/05 10:54:06;;;;;;;21.30;4.47;;;;;;;26.96;42.52;100940.91;5054067;28;20143;-83
2022/09/05 10:56:42;;;;;;;14.13;3.67;;;;;;;27.24;42.12;100951.78;5054188;28;20040;-79
2022/09/05 10:59:48;;;;;;;12.98;4.03;;;;;;;26.95;41.68;100958.94;5054125;28;20053;-80
2022/09/05 11:02:19;;;;;;;23.63;5.32;;;;;;;27.36;41.72;100961.63;5053639;28;20114;-80
2022/09/05 11:05:07;;;;;;;15.85;3.72;;;;;;;27.44;41.88;100951.09;5069313;28;20386;-80
2022/09/05 11:07:45;;;;;;;13.52;4.00;;;;;;;27.26;41.92;100948.53;5052487;28;20029;-79
2022/09/05 11:10:10;;;;;;;25.42;5.35;;;;;;;27.38;41.76;100936.75;5053665;28;20055;-85
2022/09/05 11:12:55;;;;;;;20.08;4.43;;;;;;;27.34;41.80;100948.00;5054001;28;20021;-90
2022/09/05 11:16:02;;;;;;;17.73;5.72;;;;;;;27.06;42.17;100948.44;5069069;28;20072;-80
2022/09/05 11:18:49;;;;;;;24.20;6.18;;;;;;;27.34;41.98;100950.81;5038685;28;20557;-79
2022/09/05 11:21:25;;;;;;;21.35;4.95;;;;;;;27.12;42.46;100954.34;5053432;28;20028;-81
2022/09/05 11:23:55;;;;;;;22.50;5.45;;;;;;;26.92;43.63;100948.59;5053259;28;20494;-80
2022/09/05 11:26:56;;;;;;;19.63;5.40;;;;;;;26.75;43.76;100967.19;5052551;28;20029;-82
2022/09/05 11:29:49;;;;;;;31.15;6.97;;;;;;;26.96;43.64;100975.34;5039308;28;20037;-79
2022/09/05 11:32:34;;;;;;;23.25;5.05;;;;;;;27.27;43.25;100966.97;5053231;28;20029;-78
2022/09/05 11:35:05;;;;;;;34.55;6.53;;;;;;;27.09;43.62;100958.81;5053247;28;20108;-78
2022/09/05 11:37:49;;;;;;;24.27;5.95;;;;;;;26.96;43.57;100966.13;5068689;28;20033;-79
2022/09/05 11:40:42;;;;;;;19.95;5.90;;;;;;;26.66;44.22;100962.09;5053212;28;20033;-89
2022/09/05 11:43:35;;;;;;;27.98;6.35;;;;;;;26.35;44.80;100971.63;5053032;28;20506;-80
2022/09/05 11:46:23;;;;;;;25.05;6.18;;;;;;;26.77;44.22;100970.41;5053797;28;20506;-88
2022/09/05 11:48:48;;;;;;;31.48;5.88;;;;;;;26.95;43.86;100965.34;5069418;28;20050;-90
2022/09/05 11:51:30;;;;;;;26.98;6.38;;;;;;;27.27;43.24;100956.53;5068910;28;20390;-90
2022/09/05 11:54:25;;;;;;;26.60;7.30;;;;;;;26.88;43.61;100954.22;5069027;28;20406;-79
2022/09/05 11:57:06;;;;;;;25.80;6.13;;;;;;;27.17;43.28;100937.84;5053415;28;20108;-80
2022/09/05 11:59:53;;;;;;;20.52;5.75;;;;;;;26.91;44.00;100941.41;5053643;28;20486;-80
2022/09/05 12:02:40;;;;;;;28.88;6.55;;;;;;;27.19;42.96;100938.22;5068891;28;20386;-83
2022/09/05 12:05:30;;;;;;;22.73;5.65;;;;;;;27.23;43.61;100941.78;5052842;28;20032;-80
2022/09/05 12:08:19;;;;;;;19.30;6.70;;;;;;;27.31;43.63;100950.88;5053043;28;20103;-80
2022/09/05 12:11:04;;;;;;;29.58;6.43;;;;;;;27.05;44.15;100953.25;5068978;28;20067;-81
2022/09/05 12:14:05;;;;;;;24.88;6.50;;;;;;;26.96;44.67;100938.09;5049212;28;20037;-86
2022/09/05 12:16:48;;;;;;;26.75;7.32;;;;;;;27.02;44.45;100944.84;5052926;28;20033;-80
2022/09/05 12:19:29;;;;;;;30.67;7.32;;;;;;;27.09;44.62;100939.97;5051655;28;20028;-79
2022/09/05 12:22:25;;;;;;;27.17;6.80;;;;;;;27.31;43.87;100939.66;5052774;28;20044;-81
2022/09/05 12:25:22;;;;;;;26.25;6.43;;;;;;;26.99;44.75;100932.47;5051544;28;20064;-79
2022/09/05 12:27:53;;;;;;;32.72;6.93;;;;;;;27.05;44.79;100941.22;5052886;28;20065;-80
2022/09/05 12:30:26;;;;;;;29.05;6.00;;;;;;;27.38;43.92;100945.16;5052829;28;20455;-79
2022/09/05 12:32:56;;;;;;;23.75;5.63;;;;;;;27.14;44.52;100943.53;5052619;28;20017;-80